sensor_id;sensor_type;location;lat;lon;timestamp;pressure;altitude;pressure_sealevel;temperature;humidity
6423;BME280;3244;42.708;23.288;2023-04-28T00:01:59;95270.28;;;8.14;51.72
6423;BME280;3244;42.708;23.288;2023-04-28T00:04:26;95272.84;;;8.13;52.60
6423;BME280;3244;42.708;23.288;2023-04-28T00:06:54;95272.09;;;8.08;52.18
6423;BME280;3244;42.708;23.288;2023-04-28T00:09:21;95276.34;;;8.07;52.22
6423;BME280;3244;42.708;23.288;2023-04-28T00:11:48;95280.41;;;8.14;52.81
6423;BME280;3244;42.708;23.288;2023-04-28T00:14:15;95276.09;;;8.18;52.36
6423;BME280;3244;42.708;23.288;2023-04-28T00:16:41;95281.34;;;8.10;52.21
6423;BME280;3244;42.708;23.288;2023-04-28T00:19:08;95273.06;;;8.02;52.44
6423;BME280;3244;42.708;23.288;2023-04-28T00:21:35;95269.53;;;8.09;52.82
6423;BME280;3244;42.708;23.288;2023-04-28T00:24:03;95267.81;;;8.11;51.92
6423;BME280;3244;42.708;23.288;2023-04-28T00:26:30;95275.50;;;8.07;52.90
6423;BME280;3244;42.708;23.288;2023-04-28T00:28:57;95280.50;;;8.10;53.00
6423;BME280;3244;42.708;23.288;2023-04-28T00:31:23;95271.38;;;8.01;52.65
6423;BME280;3244;42.708;23.288;2023-04-28T00:33:50;95278.97;;;8.01;53.58
6423;BME280;3244;42.708;23.288;2023-04-28T00:36:17;95282.25;;;8.06;53.01
6423;BME280;3244;42.708;23.288;2023-04-28T00:38:43;95282.38;;;8.00;53.16
6423;BME280;3244;42.708;23.288;2023-04-28T00:41:11;95285.75;;;7.99;52.28
6423;BME280;3244;42.708;23.288;2023-04-28T00:43:44;95283.94;;;8.07;53.18
6423;BME280;3244;42.708;23.288;2023-04-28T00:46:12;95291.66;;;8.00;52.72
6423;BME280;3244;42.708;23.288;2023-04-28T00:48:41;95287.25;;;8.09;52.85
6423;BME280;3244;42.708;23.288;2023-04-28T00:51:08;95284.72;;;8.09;52.33
6423;BME280;3244;42.708;23.288;2023-04-28T00:53:35;95285.53;;;8.11;51.97
6423;BME280;3244;42.708;23.288;2023-04-28T00:56:03;95284.78;;;8.06;52.85
6423;BME280;3244;42.708;23.288;2023-04-28T00:58:33;95295.72;;;8.08;52.63
6423;BME280;3244;42.708;23.288;2023-04-28T01:01:02;95291.53;;;8.06;52.82
6423;BME280;3244;42.708;23.288;2023-04-28T01:03:29;95287.31;;;8.06;52.89
6423;BME280;3244;42.708;23.288;2023-04-28T01:05:56;95299.16;;;8.04;52.50
6423;BME280;3244;42.708;23.288;2023-04-28T01:08:27;95300.94;;;7.99;52.97
6423;BME280;3244;42.708;23.288;2023-04-28T01:10:53;95303.72;;;7.89;53.34
6423;BME280;3244;42.708;23.288;2023-04-28T01:13:20;95296.94;;;7.91;53.88
6423;BME280;3244;42.708;23.288;2023-04-28T01:15:48;95298.81;;;7.79;53.49
6423;BME280;3244;42.708;23.288;2023-04-28T01:18:15;95290.53;;;7.71;53.34
6423;BME280;3244;42.708;23.288;2023-04-28T01:20:42;95299.13;;;7.63;54.17
6423;BME280;3244;42.708;23.288;2023-04-28T01:23:12;95308.44;;;7.61;54.39
6423;BME280;3244;42.708;23.288;2023-04-28T01:25:41;95305.91;;;7.61;54.79
6423;BME280;3244;42.708;23.288;2023-04-28T01:28:08;95307.81;;;7.48;54.66
6423;BME280;3244;42.708;23.288;2023-04-28T01:30:34;95306.13;;;7.48;54.47
6423;BME280;3244;42.708;23.288;2023-04-28T01:33:02;95301.06;;;7.48;54.02
6423;BME280;3244;42.708;23.288;2023-04-28T01:35:28;95310.31;;;7.49;54.61
6423;BME280;3244;42.708;23.288;2023-04-28T01:37:55;95300.22;;;7.49;53.88
6423;BME280;3244;42.708;23.288;2023-04-28T01:40:22;95298.59;;;7.45;54.22
6423;BME280;3244;42.708;23.288;2023-04-28T01:42:50;95298.72;;;7.39;54.68
6423;BME280;3244;42.708;23.288;2023-04-28T01:45:17;95302.94;;;7.39;55.22
6423;BME280;3244;42.708;23.288;2023-04-28T01:47:43;95306.44;;;7.32;55.22
6423;BME280;3244;42.708;23.288;2023-04-28T01:50:10;95303.88;;;7.33;54.77
6423;BME280;3244;42.708;23.288;2023-04-28T01:52:37;95300.53;;;7.31;55.08
6423;BME280;3244;42.708;23.288;2023-04-28T01:55:04;95298.97;;;7.24;55.34
6423;BME280;3244;42.708;23.288;2023-04-28T01:57:31;95298.19;;;7.19;54.83
6423;BME280;3244;42.708;23.288;2023-04-28T02:00:01;95305.03;;;7.15;55.19
6423;BME280;3244;42.708;23.288;2023-04-28T02:02:28;95307.75;;;7.02;55.44
6423;BME280;3244;42.708;23.288;2023-04-28T02:04:55;95312.63;;;7.14;54.88
6423;BME280;3244;42.708;23.288;2023-04-28T02:07:22;95304.28;;;7.09;54.84
6423;BME280;3244;42.708;23.288;2023-04-28T02:09:49;95313.50;;;7.13;55.17
6423;BME280;3244;42.708;23.288;2023-04-28T02:12:15;95311.19;;;6.98;55.60
6423;BME280;3244;42.708;23.288;2023-04-28T02:14:42;95312.81;;;7.02;55.69
6423;BME280;3244;42.708;23.288;2023-04-28T02:17:10;95317.03;;;7.01;55.26
6423;BME280;3244;42.708;23.288;2023-04-28T02:19:37;95316.38;;;6.90;55.49
6423;BME280;3244;42.708;23.288;2023-04-28T02:22:04;95314.69;;;6.91;55.77
6423;BME280;3244;42.708;23.288;2023-04-28T02:24:34;95319.72;;;6.92;56.63
6423;BME280;3244;42.708;23.288;2023-04-28T02:27:00;95317.22;;;6.91;56.00
6423;BME280;3244;42.708;23.288;2023-04-28T02:29:27;95324.72;;;6.94;55.60
6423;BME280;3244;42.708;23.288;2023-04-28T02:31:54;95322.41;;;6.80;56.13
6423;BME280;3244;42.708;23.288;2023-04-28T02:34:22;95320.69;;;6.82;56.43
6423;BME280;3244;42.708;23.288;2023-04-28T02:36:49;95329.00;;;6.90;56.19
6423;BME280;3244;42.708;23.288;2023-04-28T02:39:16;95324.94;;;6.80;55.97
6423;BME280;3244;42.708;23.288;2023-04-28T02:41:42;95319.97;;;6.74;56.58
6423;BME280;3244;42.708;23.288;2023-04-28T02:44:09;95326.53;;;6.86;56.48
6423;BME280;3244;42.708;23.288;2023-04-28T02:46:36;95333.31;;;6.83;55.66
6423;BME280;3244;42.708;23.288;2023-04-28T02:49:02;95337.56;;;6.80;56.78
6423;BME280;3244;42.708;23.288;2023-04-28T02:51:30;95339.25;;;6.79;56.60
6423;BME280;3244;42.708;23.288;2023-04-28T02:53:57;95335.03;;;6.81;56.14
6423;BME280;3244;42.708;23.288;2023-04-28T02:56:24;95342.59;;;6.81;56.38
6423;BME280;3244;42.708;23.288;2023-04-28T02:58:50;95334.91;;;6.91;56.86
6423;BME280;3244;42.708;23.288;2023-04-28T03:01:17;95347.56;;;6.89;56.15
6423;BME280;3244;42.708;23.288;2023-04-28T03:03:44;95344.84;;;7.00;56.59
6423;BME280;3244;42.708;23.288;2023-04-28T03:06:10;95344.06;;;6.95;55.49
6423;BME280;3244;42.708;23.288;2023-04-28T03:08:39;95350.06;;;6.91;55.59
6423;BME280;3244;42.708;23.288;2023-04-28T03:11:05;95347.47;;;6.94;55.81
6423;BME280;3244;42.708;23.288;2023-04-28T03:13:32;95363.50;;;6.93;55.29
6423;BME280;3244;42.708;23.288;2023-04-28T03:16:00;95352.59;;;6.91;55.39
6423;BME280;3244;42.708;23.288;2023-04-28T03:18:27;95355.81;;;6.99;55.33
6423;BME280;3244;42.708;23.288;2023-04-28T03:20:53;95355.63;;;7.11;55.44
6423;BME280;3244;42.708;23.288;2023-04-28T03:23:20;95362.31;;;7.15;55.14
6423;BME280;3244;42.708;23.288;2023-04-28T03:25:48;95363.13;;;7.17;54.72
6423;BME280;3244;42.708;23.288;2023-04-28T03:28:15;95366.34;;;7.25;56.06
6423;BME280;3244;42.708;23.288;2023-04-28T03:30:42;95376.38;;;7.31;54.67
6423;BME280;3244;42.708;23.288;2023-04-28T03:33:08;95384.72;;;7.36;55.32
6423;BME280;3244;42.708;23.288;2023-04-28T03:35:35;95383.03;;;7.37;54.30
6423;BME280;3244;42.708;23.288;2023-04-28T03:38:02;95388.81;;;7.43;54.65
6423;BME280;3244;42.708;23.288;2023-04-28T03:40:29;95391.47;;;7.36;54.73
6423;BME280;3244;42.708;23.288;2023-04-28T03:42:57;95386.22;;;7.46;54.83
6423;BME280;3244;42.708;23.288;2023-04-28T03:45:24;95400.34;;;7.60;54.90
6423;BME280;3244;42.708;23.288;2023-04-28T03:47:50;95400.34;;;7.61;54.74
6423;BME280;3244;42.708;23.288;2023-04-28T03:50:17;95398.47;;;7.71;54.35
6423;BME280;3244;42.708;23.288;2023-04-28T03:52:44;95399.19;;;7.79;53.70
6423;BME280;3244;42.708;23.288;2023-04-28T03:55:10;95400.81;;;7.83;52.27
6423;BME280;3244;42.708;23.288;2023-04-28T03:57:37;95404.97;;;7.85;52.98
6423;BME280;3244;42.708;23.288;2023-04-28T04:00:07;95408.22;;;7.92;52.29
6423;BME280;3244;42.708;23.288;2023-04-28T04:02:34;95408.91;;;8.00;52.50
6423;BME280;3244;42.708;23.288;2023-04-28T04:05:01;95417.16;;;8.11;51.81
6423;BME280;3244;42.708;23.288;2023-04-28T04:07:27;95414.38;;;8.24;51.88
6423;BME280;3244;42.708;23.288;2023-04-28T04:09:54;95421.88;;;8.30;51.92
6423;BME280;3244;42.708;23.288;2023-04-28T04:12:21;95425.69;;;8.52;51.27
6423;BME280;3244;42.708;23.288;2023-04-28T04:14:48;95419.59;;;9.39;48.64
6423;BME280;3244;42.708;23.288;2023-04-28T04:17:16;95410.00;;;10.49;46.32
6423;BME280;3244;42.708;23.288;2023-04-28T04:19:42;95421.13;;;11.60;44.14
6423;BME280;3244;42.708;23.288;2023-04-28T04:22:09;95413.25;;;12.67;41.37
6423;BME280;3244;42.708;23.288;2023-04-28T04:24:36;95424.75;;;13.46;39.90
6423;BME280;3244;42.708;23.288;2023-04-28T04:27:02;95415.06;;;13.96;38.68
6423;BME280;3244;42.708;23.288;2023-04-28T04:29:29;95426.94;;;14.38;37.11
6423;BME280;3244;42.708;23.288;2023-04-28T04:31:56;95416.13;;;14.72;36.20
6423;BME280;3244;42.708;23.288;2023-04-28T04:34:24;95417.81;;;15.29;34.95
6423;BME280;3244;42.708;23.288;2023-04-28T04:36:50;95421.34;;;15.62;33.80
6423;BME280;3244;42.708;23.288;2023-04-28T04:39:17;95420.53;;;15.62;33.84
6423;BME280;3244;42.708;23.288;2023-04-28T04:41:44;95424.41;;;15.52;34.08
6423;BME280;3244;42.708;23.288;2023-04-28T04:44:10;95421.97;;;15.31;34.25
6423;BME280;3244;42.708;23.288;2023-04-28T04:46:37;95421.41;;;15.25;34.75
6423;BME280;3244;42.708;23.288;2023-04-28T04:49:04;95418.94;;;15.41;34.44
6423;BME280;3244;42.708;23.288;2023-04-28T04:51:33;95417.59;;;15.70;33.77
6423;BME280;3244;42.708;23.288;2023-04-28T04:53:59;95437.63;;;15.97;33.05
6423;BME280;3244;42.708;23.288;2023-04-28T04:56:26;95436.56;;;16.19;32.74
6423;BME280;3244;42.708;23.288;2023-04-28T04:58:53;95438.03;;;16.57;32.85
6423;BME280;3244;42.708;23.288;2023-04-28T05:01:19;95440.47;;;16.93;31.43
6423;BME280;3244;42.708;23.288;2023-04-28T05:03:46;95442.81;;;17.14;30.81
6423;BME280;3244;42.708;23.288;2023-04-28T05:06:13;95452.41;;;17.10;30.74
6423;BME280;3244;42.708;23.288;2023-04-28T05:08:41;95444.31;;;17.49;30.46
6423;BME280;3244;42.708;23.288;2023-04-28T05:11:08;95445.78;;;17.38;30.69
6423;BME280;3244;42.708;23.288;2023-04-28T05:13:34;95444.22;;;17.35;30.49
6423;BME280;3244;42.708;23.288;2023-04-28T05:16:01;95441.41;;;17.24;31.26
6423;BME280;3244;42.708;23.288;2023-04-28T05:18:28;95442.66;;;17.48;30.66
6423;BME280;3244;42.708;23.288;2023-04-28T05:20:55;95445.44;;;17.59;30.47
6423;BME280;3244;42.708;23.288;2023-04-28T05:23:21;95445.22;;;18.10;30.19
6423;BME280;3244;42.708;23.288;2023-04-28T05:25:50;95440.94;;;18.54;29.44
6423;BME280;3244;42.708;23.288;2023-04-28T05:28:17;95443.19;;;20.52;27.27
6423;BME280;3244;42.708;23.288;2023-04-28T05:30:44;95429.00;;;23.42;23.56
6423;BME280;3244;42.708;23.288;2023-04-28T05:33:10;95432.72;;;25.78;21.32
6423;BME280;3244;42.708;23.288;2023-04-28T05:35:38;95435.69;;;27.08;19.72
6423;BME280;3244;42.708;23.288;2023-04-28T05:38:05;95419.34;;;27.34;19.55
6423;BME280;3244;42.708;23.288;2023-04-28T05:40:32;95415.00;;;27.80;19.43
6423;BME280;3244;42.708;23.288;2023-04-28T05:43:00;95420.53;;;28.48;18.24
6423;BME280;3244;42.708;23.288;2023-04-28T05:45:27;95418.63;;;29.69;17.86
6423;BME280;3244;42.708;23.288;2023-04-28T05:47:54;95419.81;;;30.97;16.58
6423;BME280;3244;42.708;23.288;2023-04-28T05:50:21;95405.97;;;31.27;15.89
6423;BME280;3244;42.708;23.288;2023-04-28T05:52:47;95422.06;;;31.32;16.31
6423;BME280;3244;42.708;23.288;2023-04-28T05:55:14;95411.59;;;31.63;15.44
6423;BME280;3244;42.708;23.288;2023-04-28T05:57:41;95415.84;;;32.18;15.16
6423;BME280;3244;42.708;23.288;2023-04-28T06:00:10;95416.13;;;33.51;14.49
6423;BME280;3244;42.708;23.288;2023-04-28T06:02:37;95424.44;;;34.84;13.18
6423;BME280;3244;42.708;23.288;2023-04-28T06:05:04;95414.91;;;36.06;12.54
6423;BME280;3244;42.708;23.288;2023-04-28T06:07:31;95414.78;;;37.06;11.86
6423;BME280;3244;42.708;23.288;2023-04-28T06:09:58;95413.34;;;37.82;11.85
6423;BME280;3244;42.708;23.288;2023-04-28T06:12:25;95406.03;;;38.15;11.37
6423;BME280;3244;42.708;23.288;2023-04-28T06:14:51;95402.69;;;39.07;11.07
6423;BME280;3244;42.708;23.288;2023-04-28T06:17:21;95405.66;;;39.72;11.02
6423;BME280;3244;42.708;23.288;2023-04-28T06:19:48;95408.13;;;39.86;10.41
6423;BME280;3244;42.708;23.288;2023-04-28T06:22:15;95414.94;;;40.30;9.57
6423;BME280;3244;42.708;23.288;2023-04-28T06:24:42;95407.63;;;40.25;10.31
6423;BME280;3244;42.708;23.288;2023-04-28T06:27:08;95411.31;;;40.24;10.18
6423;BME280;3244;42.708;23.288;2023-04-28T06:29:36;95417.22;;;40.26;10.48
6423;BME280;3244;42.708;23.288;2023-04-28T06:32:03;95417.72;;;40.88;9.89
6423;BME280;3244;42.708;23.288;2023-04-28T06:34:32;95410.97;;;41.44;9.28
6423;BME280;3244;42.708;23.288;2023-04-28T06:36:59;95412.16;;;42.00;9.45
6423;BME280;3244;42.708;23.288;2023-04-28T06:39:26;95412.28;;;42.38;9.28
6423;BME280;3244;42.708;23.288;2023-04-28T06:41:53;95399.94;;;42.66;9.33
6423;BME280;3244;42.708;23.288;2023-04-28T06:44:19;95407.16;;;42.65;9.05
6423;BME280;3244;42.708;23.288;2023-04-28T06:46:46;95403.59;;;42.76;9.22
6423;BME280;3244;42.708;23.288;2023-04-28T06:49:13;95403.72;;;43.20;8.65
6423;BME280;3244;42.708;23.288;2023-04-28T06:51:41;95410.66;;;43.38;8.71
6423;BME280;3244;42.708;23.288;2023-04-28T06:54:07;95401.72;;;43.49;8.68
6423;BME280;3244;42.708;23.288;2023-04-28T06:56:34;95405.47;;;43.70;8.64
6423;BME280;3244;42.708;23.288;2023-04-28T06:59:01;95399.81;;;43.66;8.57
6423;BME280;3244;42.708;23.288;2023-04-28T07:01:28;95398.66;;;43.40;8.42
6423;BME280;3244;42.708;23.288;2023-04-28T07:03:54;95396.88;;;43.46;8.57
6423;BME280;3244;42.708;23.288;2023-04-28T07:06:21;95400.56;;;43.62;8.33
6423;BME280;3244;42.708;23.288;2023-04-28T07:08:49;95390.31;;;43.37;8.55
6423;BME280;3244;42.708;23.288;2023-04-28T07:11:16;95400.91;;;43.27;8.44
6423;BME280;3244;42.708;23.288;2023-04-28T07:13:42;95392.91;;;43.32;8.29
6423;BME280;3244;42.708;23.288;2023-04-28T07:16:10;95394.50;;;43.11;8.17
6423;BME280;3244;42.708;23.288;2023-04-28T07:18:37;95399.66;;;43.18;8.38
6423;BME280;3244;42.708;23.288;2023-04-28T07:21:04;95394.38;;;43.01;8.53
6423;BME280;3244;42.708;23.288;2023-04-28T07:23:31;95396.75;;;43.19;7.97
6423;BME280;3244;42.708;23.288;2023-04-28T07:25:59;95392.44;;;43.35;8.13
6423;BME280;3244;42.708;23.288;2023-04-28T07:28:25;95392.53;;;43.06;8.27
6423;BME280;3244;42.708;23.288;2023-04-28T07:30:52;95392.50;;;43.01;8.19
6423;BME280;3244;42.708;23.288;2023-04-28T07:33:19;95386.16;;;43.46;7.90
6423;BME280;3244;42.708;23.288;2023-04-28T07:35:46;95395.41;;;42.83;7.94
6423;BME280;3244;42.708;23.288;2023-04-28T07:38:13;95396.94;;;42.62;8.27
6423;BME280;3244;42.708;23.288;2023-04-28T07:40:41;95386.41;;;43.23;8.01
6423;BME280;3244;42.708;23.288;2023-04-28T07:43:09;95392.34;;;43.68;7.95
6423;BME280;3244;42.708;23.288;2023-04-28T07:45:37;95393.19;;;43.14;8.04
6423;BME280;3244;42.708;23.288;2023-04-28T07:48:04;95384.97;;;43.37;8.14
6423;BME280;3244;42.708;23.288;2023-04-28T07:50:31;95375.22;;;43.26;7.87
6423;BME280;3244;42.708;23.288;2023-04-28T07:52:58;95384.25;;;43.63;7.71
6423;BME280;3244;42.708;23.288;2023-04-28T07:55:25;95378.19;;;43.13;7.98
6423;BME280;3244;42.708;23.288;2023-04-28T07:57:51;95387.63;;;43.75;7.98
6423;BME280;3244;42.708;23.288;2023-04-28T08:00:21;95379.22;;;42.90;7.77
6423;BME280;3244;42.708;23.288;2023-04-28T08:02:47;95381.00;;;43.61;7.73
6423;BME280;3244;42.708;23.288;2023-04-28T08:05:14;95386.59;;;43.82;7.54
6423;BME280;3244;42.708;23.288;2023-04-28T08:07:41;95375.28;;;43.31;7.78
6423;BME280;3244;42.708;23.288;2023-04-28T08:10:09;95375.38;;;43.85;7.74
6423;BME280;3244;42.708;23.288;2023-04-28T08:12:36;95378.50;;;44.30;7.61
6423;BME280;3244;42.708;23.288;2023-04-28T08:15:04;95379.91;;;44.65;7.31
6423;BME280;3244;42.708;23.288;2023-04-28T08:17:32;95385.06;;;44.39;7.32
6423;BME280;3244;42.708;23.288;2023-04-28T08:19:59;95387.38;;;44.31;7.33
6423;BME280;3244;42.708;23.288;2023-04-28T08:22:25;95384.16;;;44.02;7.46
6423;BME280;3244;42.708;23.288;2023-04-28T08:24:52;95386.28;;;43.18;7.72
6423;BME280;3244;42.708;23.288;2023-04-28T08:27:19;95381.91;;;43.11;7.78
6423;BME280;3244;42.708;23.288;2023-04-28T08:29:45;95382.56;;;43.19;7.60
6423;BME280;3244;42.708;23.288;2023-04-28T08:32:12;95375.44;;;43.24;7.69
6423;BME280;3244;42.708;23.288;2023-04-28T08:34:40;95368.91;;;43.59;7.73
6423;BME280;3244;42.708;23.288;2023-04-28T08:37:07;95382.28;;;43.81;7.58
6423;BME280;3244;42.708;23.288;2023-04-28T08:39:33;95377.63;;;43.49;7.71
6423;BME280;3244;42.708;23.288;2023-04-28T08:42:02;95385.53;;;43.00;7.65
6423;BME280;3244;42.708;23.288;2023-04-28T08:44:33;95373.97;;;43.17;7.41
6423;BME280;3244;42.708;23.288;2023-04-28T08:47:04;95377.75;;;42.65;7.80
6423;BME280;3244;42.708;23.288;2023-04-28T08:49:36;95364.31;;;42.43;8.13
6423;BME280;3244;42.708;23.288;2023-04-28T08:52:09;95364.78;;;42.57;7.93
6423;BME280;3244;42.708;23.288;2023-04-28T08:54:38;95364.13;;;42.33;7.92
6423;BME280;3244;42.708;23.288;2023-04-28T08:57:07;95364.53;;;42.59;8.02
6423;BME280;3244;42.708;23.288;2023-04-28T08:59:37;95365.59;;;41.67;8.05
6423;BME280;3244;42.708;23.288;2023-04-28T09:02:04;95355.03;;;40.97;8.47
6423;BME280;3244;42.708;23.288;2023-04-28T09:04:31;95355.72;;;40.58;8.65
6423;BME280;3244;42.708;23.288;2023-04-28T09:06:57;95355.78;;;39.98;9.00
6423;BME280;3244;42.708;23.288;2023-04-28T09:09:27;95360.81;;;39.21;9.32
6423;BME280;3244;42.708;23.288;2023-04-28T09:11:57;95352.47;;;38.25;9.44
6423;BME280;3244;42.708;23.288;2023-04-28T09:14:26;95356.41;;;37.33;10.38
6423;BME280;3244;42.708;23.288;2023-04-28T09:16:53;95342.63;;;35.86;10.78
6423;BME280;3244;42.708;23.288;2023-04-28T09:19:20;95345.19;;;34.56;11.62
6423;BME280;3244;42.708;23.288;2023-04-28T09:21:52;95342.94;;;33.31;12.34
6423;BME280;3244;42.708;23.288;2023-04-28T09:24:28;95347.28;;;31.82;13.62
6423;BME280;3244;42.708;23.288;2023-04-28T09:26:55;95333.75;;;30.92;13.83
6423;BME280;3244;42.708;23.288;2023-04-28T09:29:22;95348.53;;;29.71;14.65
6423;BME280;3244;42.708;23.288;2023-04-28T09:31:49;95333.47;;;28.29;15.39
6423;BME280;3244;42.708;23.288;2023-04-28T09:34:16;95340.91;;;27.18;16.51
6423;BME280;3244;42.708;23.288;2023-04-28T09:36:42;95328.34;;;25.71;17.65
6423;BME280;3244;42.708;23.288;2023-04-28T09:39:09;95337.28;;;24.49;18.90
6423;BME280;3244;42.708;23.288;2023-04-28T09:41:38;95343.28;;;23.44;19.91
6423;BME280;3244;42.708;23.288;2023-04-28T09:44:09;95331.13;;;22.79;20.28
6423;BME280;3244;42.708;23.288;2023-04-28T09:46:37;95336.03;;;22.26;20.76
6423;BME280;3244;42.708;23.288;2023-04-28T09:49:03;95339.97;;;21.72;21.19
6423;BME280;3244;42.708;23.288;2023-04-28T09:51:30;95332.59;;;21.55;21.98
6423;BME280;3244;42.708;23.288;2023-04-28T09:53:59;95336.41;;;21.38;21.91
6423;BME280;3244;42.708;23.288;2023-04-28T09:56:27;95332.53;;;21.08;22.05
6423;BME280;3244;42.708;23.288;2023-04-28T09:58:56;95336.56;;;20.75;22.34
6423;BME280;3244;42.708;23.288;2023-04-28T10:01:23;95325.00;;;20.55;22.46
6423;BME280;3244;42.708;23.288;2023-04-28T10:03:51;95314.31;;;20.49;22.54
6423;BME280;3244;42.708;23.288;2023-04-28T10:06:19;95310.56;;;20.27;23.20
6423;BME280;3244;42.708;23.288;2023-04-28T10:08:47;95318.19;;;20.16;23.05
6423;BME280;3244;42.708;23.288;2023-04-28T10:11:15;95319.22;;;20.14;22.68
6423;BME280;3244;42.708;23.288;2023-04-28T10:13:42;95312.53;;;19.98;22.81
6423;BME280;3244;42.708;23.288;2023-04-28T10:16:11;95313.66;;;19.94;22.93
6423;BME280;3244;42.708;23.288;2023-04-28T10:18:40;95319.00;;;19.79;23.04
6423;BME280;3244;42.708;23.288;2023-04-28T10:21:09;95314.00;;;19.63;23.23
6423;BME280;3244;42.708;23.288;2023-04-28T10:24:14;95310.78;;;19.59;22.94
6423;BME280;3244;42.708;23.288;2023-04-28T10:27:09;95313.97;;;19.23;23.51
6423;BME280;3244;42.708;23.288;2023-04-28T10:29:35;95311.56;;;19.20;23.90
6423;BME280;3244;42.708;23.288;2023-04-28T10:32:20;95301.84;;;19.11;23.63
6423;BME280;3244;42.708;23.288;2023-04-28T10:34:48;95304.72;;;19.07;24.05
6423;BME280;3244;42.708;23.288;2023-04-28T10:37:15;95298.34;;;19.12;24.22
6423;BME280;3244;42.708;23.288;2023-04-28T10:42:54;95284.88;;;18.94;23.76
6423;BME280;3244;42.708;23.288;2023-04-28T10:45:59;95281.28;;;18.97;24.37
6423;BME280;3244;42.708;23.288;2023-04-28T10:48:57;95285.16;;;19.04;24.11
6423;BME280;3244;42.708;23.288;2023-04-28T10:51:28;95280.00;;;19.04;24.59
6423;BME280;3244;42.708;23.288;2023-04-28T10:54:14;95280.56;;;18.95;24.38
6423;BME280;3244;42.708;23.288;2023-04-28T10:59:43;95274.56;;;18.67;24.67
6423;BME280;3244;42.708;23.288;2023-04-28T11:02:35;95268.84;;;18.62;24.76
6423;BME280;3244;42.708;23.288;2023-04-28T11:05:14;95266.84;;;18.67;24.28
6423;BME280;3244;42.708;23.288;2023-04-28T11:11:14;95258.81;;;18.72;23.67
6423;BME280;3244;42.708;23.288;2023-04-28T11:13:41;95256.06;;;18.75;24.70
6423;BME280;3244;42.708;23.288;2023-04-28T11:16:13;95257.38;;;18.54;24.37
6423;BME280;3244;42.708;23.288;2023-04-28T11:18:49;95256.19;;;18.59;24.94
6423;BME280;3244;42.708;23.288;2023-04-28T11:21:18;95252.22;;;18.54;24.90
6423;BME280;3244;42.708;23.288;2023-04-28T11:23:46;95247.59;;;18.59;25.10
6423;BME280;3244;42.708;23.288;2023-04-28T11:26:13;95248.72;;;18.55;25.98
6423;BME280;3244;42.708;23.288;2023-04-28T11:28:48;95248.91;;;18.52;25.61
6423;BME280;3244;42.708;23.288;2023-04-28T11:31:15;95241.75;;;18.43;26.05
6423;BME280;3244;42.708;23.288;2023-04-28T11:33:50;95232.00;;;18.48;25.80
6423;BME280;3244;42.708;23.288;2023-04-28T11:36:27;95229.06;;;18.54;25.79
6423;BME280;3244;42.708;23.288;2023-04-28T11:38:55;95228.50;;;18.63;25.71
6423;BME280;3244;42.708;23.288;2023-04-28T11:41:22;95228.84;;;18.57;24.95
6423;BME280;3244;42.708;23.288;2023-04-28T11:43:49;95221.72;;;18.48;25.54
6423;BME280;3244;42.708;23.288;2023-04-28T11:46:17;95211.97;;;18.39;26.30
6423;BME280;3244;42.708;23.288;2023-04-28T11:48:44;95216.28;;;18.66;26.46
6423;BME280;3244;42.708;23.288;2023-04-28T11:51:29;95209.91;;;18.58;26.23
6423;BME280;3244;42.708;23.288;2023-04-28T11:53:56;95209.28;;;18.68;26.12
6423;BME280;3244;42.708;23.288;2023-04-28T11:56:23;95204.28;;;18.80;26.80
6423;BME280;3244;42.708;23.288;2023-04-28T11:59:01;95215.25;;;18.96;26.24
6423;BME280;3244;42.708;23.288;2023-04-28T12:01:28;95217.94;;;18.94;25.92
6423;BME280;3244;42.708;23.288;2023-04-28T12:03:55;95216.28;;;18.93;25.99
6423;BME280;3244;42.708;23.288;2023-04-28T12:06:22;95205.88;;;18.95;25.90
6423;BME280;3244;42.708;23.288;2023-04-28T12:08:51;95208.44;;;18.95;26.02
6423;BME280;3244;42.708;23.288;2023-04-28T12:11:18;95211.13;;;18.93;26.37
6423;BME280;3244;42.708;23.288;2023-04-28T12:14:03;95201.56;;;18.95;25.46
6423;BME280;3244;42.708;23.288;2023-04-28T12:16:41;95173.88;;;18.72;26.08
6423;BME280;3244;42.708;23.288;2023-04-28T12:19:12;95186.38;;;18.78;26.11
6423;BME280;3244;42.708;23.288;2023-04-28T12:21:40;95188.53;;;18.84;26.62
6423;BME280;3244;42.708;23.288;2023-04-28T12:24:16;95176.66;;;18.82;26.27
6423;BME280;3244;42.708;23.288;2023-04-28T12:26:43;95183.38;;;18.84;26.14
6423;BME280;3244;42.708;23.288;2023-04-28T12:29:34;95181.03;;;18.94;26.73
6423;BME280;3244;42.708;23.288;2023-04-28T12:32:02;95174.03;;;18.96;26.01
6423;BME280;3244;42.708;23.288;2023-04-28T12:34:29;95176.13;;;18.50;25.85
6423;BME280;3244;42.708;23.288;2023-04-28T12:36:58;95174.16;;;18.26;26.76
6423;BME280;3244;42.708;23.288;2023-04-28T12:39:26;95168.28;;;18.24;26.70
6423;BME280;3244;42.708;23.288;2023-04-28T12:41:53;95166.03;;;18.32;26.95
6423;BME280;3244;42.708;23.288;2023-04-28T12:44:20;95170.34;;;18.46;26.51
6423;BME280;3244;42.708;23.288;2023-04-28T12:46:47;95161.56;;;18.63;26.51
6423;BME280;3244;42.708;23.288;2023-04-28T12:49:14;95170.03;;;18.65;26.65
6423;BME280;3244;42.708;23.288;2023-04-28T12:51:41;95164.41;;;18.58;26.31
6423;BME280;3244;42.708;23.288;2023-04-28T12:54:08;95161.31;;;18.53;26.74
6423;BME280;3244;42.708;23.288;2023-04-28T12:56:36;95153.50;;;18.55;27.31
6423;BME280;3244;42.708;23.288;2023-04-28T12:59:03;95152.09;;;18.63;26.94
6423;BME280;3244;42.708;23.288;2023-04-28T13:01:30;95153.94;;;18.61;26.78
6423;BME280;3244;42.708;23.288;2023-04-28T13:03:58;95151.38;;;18.61;26.32
6423;BME280;3244;42.708;23.288;2023-04-28T13:06:25;95139.91;;;18.53;26.52
6423;BME280;3244;42.708;23.288;2023-04-28T13:08:52;95138.44;;;18.49;26.91
6423;BME280;3244;42.708;23.288;2023-04-28T13:11:19;95140.63;;;18.55;27.26
6423;BME280;3244;42.708;23.288;2023-04-28T13:13:48;95147.69;;;18.65;26.92
6423;BME280;3244;42.708;23.288;2023-04-28T13:16:15;95146.47;;;18.57;27.04
6423;BME280;3244;42.708;23.288;2023-04-28T13:18:42;95138.63;;;18.46;26.88
6423;BME280;3244;42.708;23.288;2023-04-28T13:21:08;95143.81;;;18.31;26.75
6423;BME280;3244;42.708;23.288;2023-04-28T13:23:36;95143.34;;;18.39;27.65
6423;BME280;3244;42.708;23.288;2023-04-28T13:26:02;95143.25;;;18.41;27.36
6423;BME280;3244;42.708;23.288;2023-04-28T13:28:29;95134.66;;;18.54;27.12
6423;BME280;3244;42.708;23.288;2023-04-28T13:30:58;95132.28;;;18.51;27.11
6423;BME280;3244;42.708;23.288;2023-04-28T13:33:24;95140.09;;;18.50;27.49